sensor_id;sensor_type;location;lat;lon;timestamp;P1;durP1;ratioP1;P2;durP2;ratioP2
2850;SDS011;1433;49.976;8.342;2023-09-08T00:01:55;6.03;;;5.20;;
2850;SDS011;1433;49.976;8.342;2023-09-08T00:04:21;6.27;;;4.90;;
2850;SDS011;1433;49.976;8.342;2023-09-08T00:06:48;8.87;;;4.80;;
2850;SDS011;1433;49.976;8.342;2023-09-08T00:09:14;6.07;;;4.93;;
2850;SDS011;1433;49.976;8.342;2023-09-08T00:11:41;5.07;;;4.67;;
2850;SDS011;1433;49.976;8.342;2023-09-08T00:14:07;5.00;;;4.57;;
2850;SDS011;1433;49.976;8.342;2023-09-08T00:16:33;5.77;;;4.87;;
2850;SDS011;1433;49.976;8.342;2023-09-08T00:18:59;6.30;;;4.93;;
2850;SDS011;1433;49.976;8.342;2023-09-08T00:21:26;8.50;;;5.00;;
2850;SDS011;1433;49.976;8.342;2023-09-08T00:23:52;6.13;;;5.53;;
2850;SDS011;1433;49.976;8.342;2023-09-08T00:26:19;5.63;;;5.00;;
2850;SDS011;1433;49.976;8.342;2023-09-08T00:28:47;6.50;;;5.00;;
2850;SDS011;1433;49.976;8.342;2023-09-08T00:31:13;5.40;;;4.20;;
2850;SDS011;1433;49.976;8.342;2023-09-08T00:33:40;6.70;;;5.10;;
2850;SDS011;1433;49.976;8.342;2023-09-08T00:36:08;5.47;;;4.97;;
2850;SDS011;1433;49.976;8.342;2023-09-08T00:38:34;6.60;;;5.37;;
2850;SDS011;1433;49.976;8.342;2023-09-08T00:41:01;4.50;;;4.10;;
2850;SDS011;1433;49.976;8.342;2023-09-08T00:43:27;5.47;;;4.80;;
2850;SDS011;1433;49.976;8.342;2023-09-08T00:45:53;5.87;;;4.40;;
2850;SDS011;1433;49.976;8.342;2023-09-08T00:48:20;4.37;;;3.57;;
2850;SDS011;1433;49.976;8.342;2023-09-08T00:50:47;5.27;;;4.60;;
2850;SDS011;1433;49.976;8.342;2023-09-08T00:53:14;4.30;;;3.90;;
2850;SDS011;1433;49.976;8.342;2023-09-08T00:55:40;7.30;;;4.70;;
2850;SDS011;1433;49.976;8.342;2023-09-08T00:58:07;6.90;;;4.60;;
2850;SDS011;1433;49.976;8.342;2023-09-08T01:00:33;4.43;;;3.63;;
2850;SDS011;1433;49.976;8.342;2023-09-08T01:02:59;6.50;;;4.47;;
2850;SDS011;1433;49.976;8.342;2023-09-08T01:05:26;5.50;;;4.40;;
2850;SDS011;1433;49.976;8.342;2023-09-08T01:07:52;8.30;;;4.10;;
2850;SDS011;1433;49.976;8.342;2023-09-08T01:10:21;6.67;;;5.27;;
2850;SDS011;1433;49.976;8.342;2023-09-08T01:12:47;5.57;;;4.33;;
2850;SDS011;1433;49.976;8.342;2023-09-08T01:15:14;4.73;;;4.33;;
2850;SDS011;1433;49.976;8.342;2023-09-08T01:17:40;5.40;;;4.20;;
2850;SDS011;1433;49.976;8.342;2023-09-08T01:20:13;4.77;;;4.20;;
2850;SDS011;1433;49.976;8.342;2023-09-08T01:28:31;4.43;;;3.73;;
2850;SDS011;1433;49.976;8.342;2023-09-08T01:30:58;4.93;;;4.43;;
2850;SDS011;1433;49.976;8.342;2023-09-08T01:33:25;4.87;;;3.90;;
2850;SDS011;1433;49.976;8.342;2023-09-08T01:35:52;5.33;;;4.30;;
2850;SDS011;1433;49.976;8.342;2023-09-08T01:38:20;6.07;;;5.20;;
2850;SDS011;1433;49.976;8.342;2023-09-08T01:40:47;4.23;;;3.83;;
2850;SDS011;1433;49.976;8.342;2023-09-08T01:43:13;4.63;;;4.23;;
2850;SDS011;1433;49.976;8.342;2023-09-08T01:45:39;4.70;;;4.00;;
2850;SDS011;1433;49.976;8.342;2023-09-08T01:48:05;5.37;;;4.87;;
2850;SDS011;1433;49.976;8.342;2023-09-08T01:50:32;5.60;;;4.50;;
2850;SDS011;1433;49.976;8.342;2023-09-08T01:52:58;5.53;;;4.97;;
2850;SDS011;1433;49.976;8.342;2023-09-08T01:55:24;6.33;;;4.13;;
2850;SDS011;1433;49.976;8.342;2023-09-08T01:57:50;5.40;;;4.20;;
2850;SDS011;1433;49.976;8.342;2023-09-08T02:00:17;5.20;;;4.00;;
2850;SDS011;1433;49.976;8.342;2023-09-08T02:02:43;4.17;;;3.87;;
2850;SDS011;1433;49.976;8.342;2023-09-08T02:05:09;5.80;;;5.23;;
2850;SDS011;1433;49.976;8.342;2023-09-08T02:07:35;5.37;;;4.10;;
2850;SDS011;1433;49.976;8.342;2023-09-08T02:10:02;6.43;;;5.93;;
2850;SDS011;1433;49.976;8.342;2023-09-08T02:12:28;4.70;;;4.23;;
2850;SDS011;1433;49.976;8.342;2023-09-08T02:14:54;5.33;;;4.67;;
2850;SDS011;1433;49.976;8.342;2023-09-08T02:17:21;5.50;;;5.00;;
2850;SDS011;1433;49.976;8.342;2023-09-08T02:19:47;5.17;;;4.67;;
2850;SDS011;1433;49.976;8.342;2023-09-08T02:22:13;5.70;;;5.13;;
2850;SDS011;1433;49.976;8.342;2023-09-08T02:24:40;6.80;;;3.83;;
2850;SDS011;1433;49.976;8.342;2023-09-08T02:27:06;7.33;;;4.87;;
2850;SDS011;1433;49.976;8.342;2023-09-08T02:29:32;4.43;;;4.03;;
2850;SDS011;1433;49.976;8.342;2023-09-08T02:31:59;4.83;;;4.43;;
2850;SDS011;1433;49.976;8.342;2023-09-08T02:34:25;5.23;;;4.07;;
2850;SDS011;1433;49.976;8.342;2023-09-08T02:36:51;4.40;;;4.00;;
2850;SDS011;1433;49.976;8.342;2023-09-08T02:39:19;5.40;;;4.57;;
2850;SDS011;1433;49.976;8.342;2023-09-08T02:41:45;5.17;;;4.73;;
2850;SDS011;1433;49.976;8.342;2023-09-08T02:44:11;6.80;;;4.53;;
2850;SDS011;1433;49.976;8.342;2023-09-08T02:46:38;5.10;;;4.60;;
2850;SDS011;1433;49.976;8.342;2023-09-08T02:49:05;5.67;;;4.73;;
2850;SDS011;1433;49.976;8.342;2023-09-08T02:51:31;7.60;;;6.90;;
2850;SDS011;1433;49.976;8.342;2023-09-08T02:53:58;5.83;;;5.20;;
2850;SDS011;1433;49.976;8.342;2023-09-08T02:56:24;6.20;;;5.30;;
2850;SDS011;1433;49.976;8.342;2023-09-08T02:58:52;5.07;;;4.50;;
2850;SDS011;1433;49.976;8.342;2023-09-08T03:01:18;5.30;;;4.80;;
2850;SDS011;1433;49.976;8.342;2023-09-08T03:03:47;6.10;;;4.50;;
2850;SDS011;1433;49.976;8.342;2023-09-08T03:06:14;9.27;;;5.20;;
2850;SDS011;1433;49.976;8.342;2023-09-08T03:08:44;5.40;;;4.63;;
2850;SDS011;1433;49.976;8.342;2023-09-08T03:11:10;5.70;;;4.67;;
2850;SDS011;1433;49.976;8.342;2023-09-08T03:13:36;7.90;;;4.50;;
2850;SDS011;1433;49.976;8.342;2023-09-08T03:16:07;6.17;;;4.53;;
2850;SDS011;1433;49.976;8.342;2023-09-08T03:18:32;4.13;;;3.73;;
2850;SDS011;1433;49.976;8.342;2023-09-08T03:20:59;6.17;;;5.13;;
2850;SDS011;1433;49.976;8.342;2023-09-08T03:23:27;5.57;;;5.07;;
2850;SDS011;1433;49.976;8.342;2023-09-08T03:25:54;4.77;;;4.20;;
2850;SDS011;1433;49.976;8.342;2023-09-08T03:28:20;5.20;;;4.70;;
2850;SDS011;1433;49.976;8.342;2023-09-08T03:30:47;11.50;;;6.27;;
2850;SDS011;1433;49.976;8.342;2023-09-08T03:33:13;5.37;;;4.80;;
2850;SDS011;1433;49.976;8.342;2023-09-08T03:35:39;5.10;;;4.60;;
2850;SDS011;1433;49.976;8.342;2023-09-08T03:38:06;5.60;;;5.03;;
2850;SDS011;1433;49.976;8.342;2023-09-08T03:40:32;6.10;;;4.90;;
2850;SDS011;1433;49.976;8.342;2023-09-08T03:42:59;5.73;;;5.10;;
2850;SDS011;1433;49.976;8.342;2023-09-08T03:45:25;5.83;;;5.30;;
2850;SDS011;1433;49.976;8.342;2023-09-08T03:47:51;7.07;;;5.70;;
2850;SDS011;1433;49.976;8.342;2023-09-08T03:50:17;7.37;;;6.10;;
2850;SDS011;1433;49.976;8.342;2023-09-08T03:52:46;6.60;;;5.80;;
2850;SDS011;1433;49.976;8.342;2023-09-08T03:55:13;7.20;;;6.50;;
2850;SDS011;1433;49.976;8.342;2023-09-08T03:57:39;10.33;;;6.60;;
2850;SDS011;1433;49.976;8.342;2023-09-08T04:00:06;8.37;;;7.43;;
2850;SDS011;1433;49.976;8.342;2023-09-08T04:02:35;7.90;;;6.67;;
2850;SDS011;1433;49.976;8.342;2023-09-08T04:05:01;6.97;;;5.87;;
2850;SDS011;1433;49.976;8.342;2023-09-08T04:07:27;9.37;;;6.37;;
2850;SDS011;1433;49.976;8.342;2023-09-08T04:09:53;21.40;;;8.47;;
2850;SDS011;1433;49.976;8.342;2023-09-08T04:12:20;7.30;;;6.63;;
2850;SDS011;1433;49.976;8.342;2023-09-08T04:14:46;11.43;;;10.20;;
2850;SDS011;1433;49.976;8.342;2023-09-08T04:17:12;12.80;;;10.10;;
2850;SDS011;1433;49.976;8.342;2023-09-08T04:19:38;11.67;;;8.13;;
2850;SDS011;1433;49.976;8.342;2023-09-08T04:22:04;10.93;;;7.70;;
2850;SDS011;1433;49.976;8.342;2023-09-08T04:24:34;9.30;;;7.60;;
2850;SDS011;1433;49.976;8.342;2023-09-08T04:27:02;10.97;;;8.33;;
2850;SDS011;1433;49.976;8.342;2023-09-08T04:29:29;13.67;;;10.40;;
2850;SDS011;1433;49.976;8.342;2023-09-08T04:31:55;8.70;;;7.80;;
2850;SDS011;1433;49.976;8.342;2023-09-08T04:34:21;10.80;;;9.60;;
2850;SDS011;1433;49.976;8.342;2023-09-08T04:36:47;11.00;;;8.70;;
2850;SDS011;1433;49.976;8.342;2023-09-08T04:39:14;12.43;;;8.40;;
2850;SDS011;1433;49.976;8.342;2023-09-08T04:41:41;12.70;;;8.93;;
2850;SDS011;1433;49.976;8.342;2023-09-08T04:44:07;10.30;;;9.20;;
2850;SDS011;1433;49.976;8.342;2023-09-08T04:46:34;13.53;;;9.60;;
2850;SDS011;1433;49.976;8.342;2023-09-08T04:49:01;9.70;;;8.70;;
2850;SDS011;1433;49.976;8.342;2023-09-08T04:51:27;11.60;;;9.47;;
2850;SDS011;1433;49.976;8.342;2023-09-08T04:53:53;12.67;;;8.33;;
2850;SDS011;1433;49.976;8.342;2023-09-08T04:56:19;12.47;;;9.03;;
2850;SDS011;1433;49.976;8.342;2023-09-08T04:58:45;8.87;;;7.70;;
2850;SDS011;1433;49.976;8.342;2023-09-08T05:01:13;9.30;;;7.57;;
2850;SDS011;1433;49.976;8.342;2023-09-08T05:03:39;11.63;;;9.07;;
2850;SDS011;1433;49.976;8.342;2023-09-08T05:06:07;9.00;;;8.10;;
2850;SDS011;1433;49.976;8.342;2023-09-08T05:08:48;8.23;;;7.43;;
2850;SDS011;1433;49.976;8.342;2023-09-08T05:11:15;9.57;;;7.73;;
2850;SDS011;1433;49.976;8.342;2023-09-08T05:13:43;8.37;;;7.27;;
2850;SDS011;1433;49.976;8.342;2023-09-08T05:16:10;12.73;;;9.13;;
2850;SDS011;1433;49.976;8.342;2023-09-08T05:18:44;11.63;;;7.90;;
2850;SDS011;1433;49.976;8.342;2023-09-08T05:21:10;11.60;;;8.40;;
2850;SDS011;1433;49.976;8.342;2023-09-08T05:23:36;7.83;;;6.83;;
2850;SDS011;1433;49.976;8.342;2023-09-08T05:26:03;8.57;;;5.87;;
2850;SDS011;1433;49.976;8.342;2023-09-08T05:28:29;10.10;;;6.67;;
2850;SDS011;1433;49.976;8.342;2023-09-08T05:30:55;6.90;;;6.07;;
2850;SDS011;1433;49.976;8.342;2023-09-08T05:33:25;6.20;;;5.60;;
2850;SDS011;1433;49.976;8.342;2023-09-08T05:35:51;12.83;;;6.47;;
2850;SDS011;1433;49.976;8.342;2023-09-08T05:38:17;6.77;;;6.07;;
2850;SDS011;1433;49.976;8.342;2023-09-08T05:40:44;7.00;;;6.20;;
2850;SDS011;1433;49.976;8.342;2023-09-08T05:43:10;6.83;;;5.87;;
2850;SDS011;1433;49.976;8.342;2023-09-08T05:45:36;6.03;;;5.30;;
2850;SDS011;1433;49.976;8.342;2023-09-08T05:48:03;4.40;;;4.00;;
2850;SDS011;1433;49.976;8.342;2023-09-08T05:50:30;6.57;;;5.97;;
2850;SDS011;1433;49.976;8.342;2023-09-08T05:52:56;7.47;;;5.60;;
2850;SDS011;1433;49.976;8.342;2023-09-08T05:55:22;5.20;;;4.57;;
2850;SDS011;1433;49.976;8.342;2023-09-08T05:57:49;7.23;;;5.30;;
2850;SDS011;1433;49.976;8.342;2023-09-08T06:00:17;11.60;;;5.53;;
2850;SDS011;1433;49.976;8.342;2023-09-08T06:02:45;7.10;;;5.73;;
2850;SDS011;1433;49.976;8.342;2023-09-08T06:05:13;6.50;;;5.27;;
2850;SDS011;1433;49.976;8.342;2023-09-08T06:07:39;6.87;;;4.67;;
2850;SDS011;1433;49.976;8.342;2023-09-08T06:10:06;7.20;;;5.20;;
2850;SDS011;1433;49.976;8.342;2023-09-08T06:12:32;8.30;;;4.40;;
2850;SDS011;1433;49.976;8.342;2023-09-08T06:14:59;15.70;;;5.33;;
2850;SDS011;1433;49.976;8.342;2023-09-08T06:17:25;4.90;;;4.47;;
2850;SDS011;1433;49.976;8.342;2023-09-08T06:19:53;5.20;;;4.47;;
2850;SDS011;1433;49.976;8.342;2023-09-08T06:22:19;5.00;;;4.57;;
2850;SDS011;1433;49.976;8.342;2023-09-08T06:24:46;7.60;;;5.30;;
2850;SDS011;1433;49.976;8.342;2023-09-08T06:27:13;6.70;;;5.03;;
2850;SDS011;1433;49.976;8.342;2023-09-08T06:29:41;5.53;;;5.03;;
2850;SDS011;1433;49.976;8.342;2023-09-08T06:32:10;5.63;;;5.10;;
2850;SDS011;1433;49.976;8.342;2023-09-08T06:34:37;6.03;;;4.93;;
2850;SDS011;1433;49.976;8.342;2023-09-08T06:37:04;6.10;;;4.80;;
2850;SDS011;1433;49.976;8.342;2023-09-08T06:39:30;6.10;;;5.00;;
2850;SDS011;1433;49.976;8.342;2023-09-08T06:41:56;5.80;;;4.87;;
2850;SDS011;1433;49.976;8.342;2023-09-08T06:44:23;6.10;;;5.50;;
2850;SDS011;1433;49.976;8.342;2023-09-08T06:46:49;8.20;;;5.13;;
2850;SDS011;1433;49.976;8.342;2023-09-08T06:49:15;6.60;;;4.60;;
2850;SDS011;1433;49.976;8.342;2023-09-08T06:51:42;6.80;;;5.80;;
2850;SDS011;1433;49.976;8.342;2023-09-08T06:54:08;9.13;;;6.30;;
2850;SDS011;1433;49.976;8.342;2023-09-08T06:56:36;5.17;;;4.77;;
2850;SDS011;1433;49.976;8.342;2023-09-08T06:59:03;5.50;;;5.00;;
2850;SDS011;1433;49.976;8.342;2023-09-08T07:01:30;4.73;;;4.33;;
2850;SDS011;1433;49.976;8.342;2023-09-08T07:03:56;9.60;;;4.70;;
2850;SDS011;1433;49.976;8.342;2023-09-08T07:06:23;5.63;;;4.80;;
2850;SDS011;1433;49.976;8.342;2023-09-08T07:08:49;8.63;;;5.20;;
2850;SDS011;1433;49.976;8.342;2023-09-08T07:11:16;5.80;;;5.13;;
2850;SDS011;1433;49.976;8.342;2023-09-08T07:13:43;6.53;;;4.97;;
2850;SDS011;1433;49.976;8.342;2023-09-08T07:16:10;5.90;;;5.30;;
2850;SDS011;1433;49.976;8.342;2023-09-08T07:18:36;6.33;;;5.40;;
2850;SDS011;1433;49.976;8.342;2023-09-08T07:21:04;4.87;;;4.40;;
2850;SDS011;1433;49.976;8.342;2023-09-08T07:23:31;6.47;;;5.23;;
2850;SDS011;1433;49.976;8.342;2023-09-08T07:25:57;5.17;;;4.63;;
2850;SDS011;1433;49.976;8.342;2023-09-08T07:28:25;11.90;;;5.67;;
2850;SDS011;1433;49.976;8.342;2023-09-08T07:30:52;7.00;;;5.93;;
2850;SDS011;1433;49.976;8.342;2023-09-08T07:33:19;5.80;;;5.20;;
2850;SDS011;1433;49.976;8.342;2023-09-08T07:35:45;6.00;;;5.40;;
2850;SDS011;1433;49.976;8.342;2023-09-08T07:38:12;5.00;;;4.60;;
2850;SDS011;1433;49.976;8.342;2023-09-08T07:40:38;8.50;;;5.00;;
2850;SDS011;1433;49.976;8.342;2023-09-08T07:43:07;6.13;;;5.00;;
2850;SDS011;1433;49.976;8.342;2023-09-08T07:45:36;5.20;;;4.07;;
2850;SDS011;1433;49.976;8.342;2023-09-08T07:48:10;6.13;;;5.00;;
2850;SDS011;1433;49.976;8.342;2023-09-08T07:50:38;9.57;;;5.00;;
2850;SDS011;1433;49.976;8.342;2023-09-08T07:53:07;6.40;;;5.30;;
2850;SDS011;1433;49.976;8.342;2023-09-08T07:55:38;6.37;;;5.00;;
2850;SDS011;1433;49.976;8.342;2023-09-08T07:58:10;5.13;;;4.63;;
2850;SDS011;1433;49.976;8.342;2023-09-08T08:00:41;9.13;;;4.77;;
2850;SDS011;1433;49.976;8.342;2023-09-08T08:03:10;6.97;;;4.60;;
2850;SDS011;1433;49.976;8.342;2023-09-08T08:05:36;8.00;;;5.37;;
2850;SDS011;1433;49.976;8.342;2023-09-08T08:08:02;7.50;;;5.13;;
2850;SDS011;1433;49.976;8.342;2023-09-08T08:10:28;7.33;;;5.20;;
2850;SDS011;1433;49.976;8.342;2023-09-08T08:12:55;5.90;;;5.40;;
2850;SDS011;1433;49.976;8.342;2023-09-08T08:15:22;6.20;;;5.67;;
2850;SDS011;1433;49.976;8.342;2023-09-08T08:17:48;5.90;;;3.70;;
2850;SDS011;1433;49.976;8.342;2023-09-08T08:20:16;6.67;;;4.70;;
2850;SDS011;1433;49.976;8.342;2023-09-08T08:22:43;8.33;;;5.97;;
2850;SDS011;1433;49.976;8.342;2023-09-08T08:25:13;11.90;;;4.37;;
2850;SDS011;1433;49.976;8.342;2023-09-08T08:27:39;7.40;;;4.83;;
2850;SDS011;1433;49.976;8.342;2023-09-08T08:30:06;7.80;;;4.63;;
2850;SDS011;1433;49.976;8.342;2023-09-08T08:32:33;5.03;;;4.63;;
2850;SDS011;1433;49.976;8.342;2023-09-08T08:35:00;5.67;;;4.60;;
2850;SDS011;1433;49.976;8.342;2023-09-08T08:37:26;5.13;;;4.73;;
2850;SDS011;1433;49.976;8.342;2023-09-08T08:39:52;5.67;;;4.50;;
2850;SDS011;1433;49.976;8.342;2023-09-08T08:42:18;5.47;;;5.07;;
2850;SDS011;1433;49.976;8.342;2023-09-08T08:44:46;6.50;;;5.73;;
2850;SDS011;1433;49.976;8.342;2023-09-08T08:47:13;6.20;;;4.90;;
2850;SDS011;1433;49.976;8.342;2023-09-08T08:49:40;7.37;;;5.10;;
2850;SDS011;1433;49.976;8.342;2023-09-08T08:52:09;5.67;;;5.10;;
2850;SDS011;1433;49.976;8.342;2023-09-08T08:54:37;5.77;;;5.30;;
2850;SDS011;1433;49.976;8.342;2023-09-08T08:57:05;6.70;;;4.80;;
2850;SDS011;1433;49.976;8.342;2023-09-08T08:59:32;5.77;;;4.53;;
2850;SDS011;1433;49.976;8.342;2023-09-08T09:01:59;7.30;;;4.60;;
2850;SDS011;1433;49.976;8.342;2023-09-08T09:04:25;7.07;;;4.77;;
2850;SDS011;1433;49.976;8.342;2023-09-08T09:06:52;4.37;;;3.97;;
2850;SDS011;1433;49.976;8.342;2023-09-08T09:09:19;6.60;;;5.40;;
2850;SDS011;1433;49.976;8.342;2023-09-08T09:11:46;8.53;;;5.63;;
2850;SDS011;1433;49.976;8.342;2023-09-08T09:14:12;6.40;;;5.00;;
2850;SDS011;1433;49.976;8.342;2023-09-08T09:16:39;5.43;;;4.90;;
2850;SDS011;1433;49.976;8.342;2023-09-08T09:19:06;7.10;;;6.40;;
2850;SDS011;1433;49.976;8.342;2023-09-08T09:24:15;5.93;;;5.20;;
2850;SDS011;1433;49.976;8.342;2023-09-08T09:26:42;6.67;;;5.70;;
2850;SDS011;1433;49.976;8.342;2023-09-08T09:29:13;3.73;;;3.43;;
2850;SDS011;1433;49.976;8.342;2023-09-08T09:31:53;7.13;;;5.13;;
2850;SDS011;1433;49.976;8.342;2023-09-08T09:34:21;5.80;;;4.40;;
2850;SDS011;1433;49.976;8.342;2023-09-08T09:36:49;5.20;;;4.77;;
2850;SDS011;1433;49.976;8.342;2023-09-08T09:39:16;5.53;;;5.03;;
2850;SDS011;1433;49.976;8.342;2023-09-08T09:41:45;6.43;;;4.90;;
2850;SDS011;1433;49.976;8.342;2023-09-08T09:44:14;6.10;;;4.77;;
2850;SDS011;1433;49.976;8.342;2023-09-08T09:46:46;6.63;;;5.30;;
2850;SDS011;1433;49.976;8.342;2023-09-08T09:49:13;5.00;;;4.40;;
2850;SDS011;1433;49.976;8.342;2023-09-08T09:51:42;4.67;;;4.30;;
2850;SDS011;1433;49.976;8.342;2023-09-08T09:54:09;6.17;;;4.90;;
2850;SDS011;1433;49.976;8.342;2023-09-08T09:56:37;7.40;;;4.73;;
2850;SDS011;1433;49.976;8.342;2023-09-08T09:59:04;5.83;;;5.33;;
2850;SDS011;1433;49.976;8.342;2023-09-08T10:01:31;3.67;;;3.40;;
2850;SDS011;1433;49.976;8.342;2023-09-08T10:03:58;6.43;;;4.63;;
2850;SDS011;1433;49.976;8.342;2023-09-08T10:06:25;4.80;;;4.40;;
2850;SDS011;1433;49.976;8.342;2023-09-08T10:08:52;4.63;;;4.13;;
2850;SDS011;1433;49.976;8.342;2023-09-08T10:11:21;5.47;;;4.97;;
2850;SDS011;1433;49.976;8.342;2023-09-08T10:13:50;5.23;;;3.83;;
2850;SDS011;1433;49.976;8.342;2023-09-08T10:16:19;5.50;;;5.00;;
2850;SDS011;1433;49.976;8.342;2023-09-08T10:18:47;7.37;;;4.90;;
2850;SDS011;1433;49.976;8.342;2023-09-08T10:21:16;7.43;;;5.47;;
2850;SDS011;1433;49.976;8.342;2023-09-08T10:23:48;5.50;;;4.37;;
2850;SDS011;1433;49.976;8.342;2023-09-08T10:26:17;6.13;;;4.80;;
2850;SDS011;1433;49.976;8.342;2023-09-08T10:28:44;8.00;;;4.70;;
2850;SDS011;1433;49.976;8.342;2023-09-08T10:31:10;4.27;;;3.87;;
2850;SDS011;1433;49.976;8.342;2023-09-08T10:33:38;4.40;;;4.10;;
2850;SDS011;1433;49.976;8.342;2023-09-08T10:36:05;4.20;;;3.90;;
2850;SDS011;1433;49.976;8.342;2023-09-08T10:38:33;6.10;;;5.50;;
2850;SDS011;1433;49.976;8.342;2023-09-08T10:43:54;4.20;;;3.80;;
2850;SDS011;1433;49.976;8.342;2023-09-08T10:46:21;8.33;;;4.37;;
2850;SDS011;1433;49.976;8.342;2023-09-08T10:48:48;5.30;;;4.33;;
2850;SDS011;1433;49.976;8.342;2023-09-08T10:51:15;5.67;;;5.27;;
2850;SDS011;1433;49.976;8.342;2023-09-08T10:53:42;4.47;;;4.17;;
2850;SDS011;1433;49.976;8.342;2023-09-08T10:56:16;4.23;;;3.80;;
2850;SDS011;1433;49.976;8.342;2023-09-08T10:58:42;4.83;;;4.33;;
2850;SDS011;1433;49.976;8.342;2023-09-08T11:01:16;4.33;;;3.93;;
2850;SDS011;1433;49.976;8.342;2023-09-08T11:03:43;6.73;;;4.10;;
2850;SDS011;1433;49.976;8.342;2023-09-08T11:06:14;4.90;;;4.53;;
2850;SDS011;1433;49.976;8.342;2023-09-08T11:08:45;4.40;;;4.03;;
2850;SDS011;1433;49.976;8.342;2023-09-08T11:11:13;5.37;;;5.00;;
2850;SDS011;1433;49.976;8.342;2023-09-08T11:13:40;4.27;;;3.93;;
2850;SDS011;1433;49.976;8.342;2023-09-08T11:16:07;4.47;;;4.07;;
2850;SDS011;1433;49.976;8.342;2023-09-08T11:18:34;15.20;;;4.90;;
2850;SDS011;1433;49.976;8.342;2023-09-08T11:21:01;4.50;;;4.10;;
2850;SDS011;1433;49.976;8.342;2023-09-08T11:23:28;6.80;;;3.90;;
2850;SDS011;1433;49.976;8.342;2023-09-08T11:25:55;4.13;;;3.83;;
2850;SDS011;1433;49.976;8.342;2023-09-08T11:28:21;5.80;;;4.20;;
2850;SDS011;1433;49.976;8.342;2023-09-08T11:30:49;5.00;;;4.60;;
2850;SDS011;1433;49.976;8.342;2023-09-08T11:33:15;4.40;;;4.10;;
2850;SDS011;1433;49.976;8.342;2023-09-08T11:35:47;6.53;;;3.10;;
2850;SDS011;1433;49.976;8.342;2023-09-08T11:38:14;4.00;;;3.63;;
2850;SDS011;1433;49.976;8.342;2023-09-08T11:40:40;3.67;;;3.37;;
2850;SDS011;1433;49.976;8.342;2023-09-08T11:43:07;4.33;;;4.03;;
2850;SDS011;1433;49.976;8.342;2023-09-08T11:45:34;4.07;;;3.77;;
2850;SDS011;1433;49.976;8.342;2023-09-08T11:48:01;5.80;;;3.63;;
2850;SDS011;1433;49.976;8.342;2023-09-08T11:50:29;4.17;;;3.73;;
2850;SDS011;1433;49.976;8.342;2023-09-08T11:52:55;4.03;;;3.60;;
2850;SDS011;1433;49.976;8.342;2023-09-08T11:55:23;3.70;;;3.40;;
2850;SDS011;1433;49.976;8.342;2023-09-08T11:57:54;4.77;;;4.37;;
2850;SDS011;1433;49.976;8.342;2023-09-08T12:00:23;6.00;;;5.53;;
2850;SDS011;1433;49.976;8.342;2023-09-08T12:02:51;3.80;;;3.50;;
2850;SDS011;1433;49.976;8.342;2023-09-08T12:05:24;4.80;;;4.40;;
2850;SDS011;1433;49.976;8.342;2023-09-08T12:07:52;4.37;;;3.97;;
2850;SDS011;1433;49.976;8.342;2023-09-08T12:10:22;4.77;;;4.37;;
2850;SDS011;1433;49.976;8.342;2023-09-08T12:12:50;3.90;;;3.63;;
2850;SDS011;1433;49.976;8.342;2023-09-08T12:18:03;5.23;;;4.73;;
2850;SDS011;1433;49.976;8.342;2023-09-08T12:20:32;5.67;;;4.30;;
2850;SDS011;1433;49.976;8.342;2023-09-08T12:23:02;4.67;;;4.27;;
2850;SDS011;1433;49.976;8.342;2023-09-08T12:25:44;3.90;;;3.60;;
2850;SDS011;1433;49.976;8.342;2023-09-08T12:28:07;4.90;;;3.90;;
2850;SDS011;1433;49.976;8.342;2023-09-08T12:30:35;6.00;;;3.80;;
2850;SDS011;1433;49.976;8.342;2023-09-08T12:33:02;3.60;;;3.40;;
2850;SDS011;1433;49.976;8.342;2023-09-08T12:35:29;5.50;;;5.00;;
2850;SDS011;1433;49.976;8.342;2023-09-08T12:38:03;3.93;;;3.13;;
2850;SDS011;1433;49.976;8.342;2023-09-08T12:40:33;3.87;;;3.57;;
2850;SDS011;1433;49.976;8.342;2023-09-08T12:43:00;4.30;;;4.00;;
2850;SDS011;1433;49.976;8.342;2023-09-08T12:45:27;3.80;;;3.50;;
2850;SDS011;1433;49.976;8.342;2023-09-08T12:47:54;3.15;;;2.92;;
2850;SDS011;1433;49.976;8.342;2023-09-08T12:50:24;3.90;;;3.60;;
2850;SDS011;1433;49.976;8.342;2023-09-08T12:52:51;4.20;;;3.90;;
2850;SDS011;1433;49.976;8.342;2023-09-08T12:55:19;4.17;;;3.62;;
2850;SDS011;1433;49.976;8.342;2023-09-08T12:57:45;3.20;;;3.00;;
2850;SDS011;1433;49.976;8.342;2023-09-08T13:00:13;3.60;;;3.30;;
2850;SDS011;1433;49.976;8.342;2023-09-08T13:02:39;4.05;;;3.65;;
2850;SDS011;1433;49.976;8.342;2023-09-08T13:05:07;4.62;;;4.28;;
2850;SDS011;1433;49.976;8.342;2023-09-08T13:07:33;4.23;;;3.90;;
2850;SDS011;1433;49.976;8.342;2023-09-08T13:10:00;4.95;;;4.55;;
2850;SDS011;1433;49.976;8.342;2023-09-08T13:12:26;4.62;;;4.33;;
2850;SDS011;1433;49.976;8.342;2023-09-08T13:14:52;4.67;;;3.72;;
2850;SDS011;1433;49.976;8.342;2023-09-08T13:17:18;4.50;;;4.10;;
2850;SDS011;1433;49.976;8.342;2023-09-08T13:19:44;4.90;;;4.50;;
2850;SDS011;1433;49.976;8.342;2023-09-08T13:22:11;4.12;;;3.83;;
2850;SDS011;1433;49.976;8.342;2023-09-08T13:24:37;5.00;;;4.25;;
2850;SDS011;1433;49.976;8.342;2023-09-08T13:27:03;4.40;;;4.10;;
2850;SDS011;1433;49.976;8.342;2023-09-08T13:29:30;4.87;;;4.22;;
2850;SDS011;1433;49.976;8.342;2023-09-08T13:31:56;3.47;;;3.22;;
2850;SDS011;1433;49.976;8.342;2023-09-08T13:34:23;4.30;;;3.95;;
2850;SDS011;1433;49.976;8.342;2023-09-08T13:36:49;4.55;;;4.08;;
2850;SDS011;1433;49.976;8.342;2023-09-08T13:39:16;4.12;;;3.83;;
2850;SDS011;1433;49.976;8.342;2023-09-08T13:44:19;4.50;;;4.03;;
2850;SDS011;1433;49.976;8.342;2023-09-08T13:46:46;6.60;;;4.75;;
2850;SDS011;1433;49.976;8.342;2023-09-08T13:49:14;4.08;;;3.67;;
2850;SDS011;1433;49.976;8.342;2023-09-08T13:51:41;3.67;;;3.22;;
2850;SDS011;1433;49.976;8.342;2023-09-08T13:54:08;4.47;;;4.17;;
2850;SDS011;1433;49.976;8.342;2023-09-08T13:56:35;4.00;;;3.70;;
2850;SDS011;1433;49.976;8.342;2023-09-08T13:59:01;4.83;;;4.37;;
2850;SDS011;1433;49.976;8.342;2023-09-08T14:01:27;4.65;;;4.25;;
2850;SDS011;1433;49.976;8.342;2023-09-08T14:03:55;3.17;;;2.87;;
2850;SDS011;1433;49.976;8.342;2023-09-08T14:06:26;4.00;;;3.62;;
2850;SDS011;1433;49.976;8.342;2023-09-08T14:08:54;7.15;;;3.72;;
2850;SDS011;1433;49.976;8.342;2023-09-08T14:11:22;3.67;;;3.37;;
2850;SDS011;1433;49.976;8.342;2023-09-08T14:13:48;3.70;;;3.40;;
2850;SDS011;1433;49.976;8.342;2023-09-08T14:16:17;4.90;;;3.90;;
2850;SDS011;1433;49.976;8.342;2023-09-08T14:18:43;3.87;;;3.47;;
2850;SDS011;1433;49.976;8.342;2023-09-08T14:21:10;3.70;;;3.37;;
2850;SDS011;1433;49.976;8.342;2023-09-08T14:23:36;3.70;;;3.40;;
2850;SDS011;1433;49.976;8.342;2023-09-08T14:26:06;3.87;;;3.60;;
2850;SDS011;1433;49.976;8.342;2023-09-08T14:28:34;3.47;;;3.27;;
2850;SDS011;1433;49.976;8.342;2023-09-08T14:31:00;4.40;;;4.07;;
2850;SDS011;1433;49.976;8.342;2023-09-08T14:33:26;4.40;;;3.93;;
2850;SDS011;1433;49.976;8.342;2023-09-08T14:35:52;7.53;;;4.47;;
2850;SDS011;1433;49.976;8.342;2023-09-08T14:38:20;3.77;;;3.47;;
2850;SDS011;1433;49.976;8.342;2023-09-08T14:40:59;4.80;;;3.97;;
2850;SDS011;1433;49.976;8.342;2023-09-08T14:43:27;3.17;;;2.90;;
2850;SDS011;1433;49.976;8.342;2023-09-08T14:45:55;3.53;;;3.23;;
2850;SDS011;1433;49.976;8.342;2023-09-08T14:48:25;4.40;;;4.10;;
2850;SDS011;1433;49.976;8.342;2023-09-08T14:50:51;4.53;;;4.13;;
2850;SDS011;1433;49.976;8.342;2023-09-08T14:53:17;4.20;;;3.80;;
2850;SDS011;1433;49.976;8.342;2023-09-08T14:55:44;3.43;;;3.13;;
2850;SDS011;1433;49.976;8.342;2023-09-08T14:58:10;5.80;;;4.17;;
2850;SDS011;1433;49.976;8.342;2023-09-08T15:00:40;4.27;;;3.87;;
2850;SDS011;1433;49.976;8.342;2023-09-08T15:03:07;3.80;;;3.40;;
2850;SDS011;1433;49.976;8.342;2023-09-08T15:05:34;4.43;;;3.90;;
2850;SDS011;1433;49.976;8.342;2023-09-08T15:08:01;4.33;;;3.90;;
2850;SDS011;1433;49.976;8.342;2023-09-08T15:10:28;4.57;;;4.17;;
2850;SDS011;1433;49.976;8.342;2023-09-08T15:12:54;6.20;;;5.60;;
2850;SDS011;1433;49.976;8.342;2023-09-08T15:15:20;4.77;;;4.37;;
2850;SDS011;1433;49.976;8.342;2023-09-08T15:17:49;4.43;;;3.53;;
2850;SDS011;1433;49.976;8.342;2023-09-08T15:20:16;3.43;;;3.20;;
2850;SDS011;1433;49.976;8.342;2023-09-08T15:22:42;4.07;;;3.73;;
2850;SDS011;1433;49.976;8.342;2023-09-08T15:25:08;3.90;;;3.60;;
2850;SDS011;1433;49.976;8.342;2023-09-08T15:27:35;7.67;;;3.80;;
2850;SDS011;1433;49.976;8.342;2023-09-08T15:30:01;4.00;;;3.70;;
2850;SDS011;1433;49.976;8.342;2023-09-08T15:32:27;3.50;;;3.30;;